馬祖南竿航空站 - ATIS

METAR RCFG 230000Z 20011KT 7000 FEW010 BKN028 BKN060 26/26 Q1008 NOSIG RMK MAX WND 17KT 22015KT/R03 21017G27KT/NJL A2977(P)=

站台狀態:Online
最後更新:2018-06-23 08:45:01